KASE/ASE METAR and TAF weather

Enter ICAO airport designator
Station Type Date Time Source
KASE METAR 2022/05/23 14:53 UTC NOAA

KASE 231453Z 34008KT 10SM OVC034 06/M03 A3009 RMK AO2 SLP112 T00611028 51017


Station Type Date Time Source
KASE Decoded METAR 2022/05/23 14:53 UTC NOAA

ASPEN-PITKIN COUNTY AIRPORT, CO, United States (KASE) 39-14N 106-52W 2354M
May 23, 2022 - 10:53 AM EDT / 2022.05.23 1453 UTC
Wind: from the NNW (340 degrees) at 9 MPH (8 KT):0
Visibility: 10 mile(s):0
Sky conditions: overcast
Temperature: 43.0 F (6.1 C)
Dew Point: 27.0 F (-2.8 C)
Relative Humidity: 52%
Pressure (altimeter): 30.09 in. Hg (1018 hPa)
Pressure tendency: 0.05 inches (1.7 hPa) higher than three hours ago
ob: KASE 231453Z 34008KT 10SM OVC034 06/M03 A3009 RMK AO2 SLP112 T00611028 51017
cycle: 15

Station Type Date Time Source
KASE TAF 2022/05/23 15:18 UTC NOAA

TAF
AMD KASE 231515Z 2315/2412 34010KT P6SM SCT035 BKN100
FM231800 35008KT P6SM SCT100 SCT250
FM240100 29008KT P6SM SCT080 BKN100
FM240300 20004KT P6SM BKN250

Example: see airport list